Wind EuroAirport

Messzeit Windrichtung Windgeschwindigkeit [Knoten] Rückenwind Nordpiste [Knoten] METAR
2019-09-15 09:00 S 170° 4 - LFSB 150700Z 17004KT 9999 4000W FEW001 17/16 Q1025 BECMG CAVOK
2019-09-15 08:30 S 160° 3 - LFSB 150630Z 16003KT 8000 3000W FEW001 15/15 Q1025 BECMG CAVOK
2019-09-15 08:00 S 180°
(150°–220°)
4 - LFSB 150600Z 18004KT 150V220 5000 0900W R15/P2000 R33/P2000 BCFG BR FEW001 14/14 Q1026 TEMPO 0600 BCFG
2019-09-15 07:44 S 190° 4 - LFSB 150544Z 19004KT 4000 0900SW R15/P2000 R33/P2000 BCFG BR FEW001 14/13 Q1026 TEMPO 0600 BCFG
2019-09-15 07:00 S 160° 4 - LFSB 150500Z 16004KT 6000 1400SW R15/P2000 R33/0900N FEW001 13/13 Q1025 TEMPO 0600 BCFG BKN001
2019-09-15 06:30 S 180° 2 - LFSB 150430Z 18002KT 7000 NSC 12/12 Q1025
2019-09-15 06:00 S 200° 3 - LFSB 150400Z 20003KT 8000 FEW001 12/12 Q1025
2019-09-15 05:30 SW 220° 3 - LFSB 150330Z 22003KT 6000 FEW001 12/11 Q1026
2019-09-15 05:00 W 270° 2 1 LFSB 150300Z 27002KT 6000 R33/0900D FEW003 11/11 Q1026
2019-09-15 04:30 SW 230° 1 - LFSB 150230Z 23001KT 6000 SCT003 11/11 Q1026
2019-09-15 04:00 SW 220° 2 - LFSB 150200Z AUTO 22002KT 4000 0800 R15/0900D R33/P2000 BCFG VV/// 12/11 Q1026 TEMPO 0500 FG BKN002
2019-09-15 03:30 - 0 - LFSB 150130Z AUTO 00000KT 4300 0750 R15/P2000 R33/0900D BCFG FEW010 12/12 Q1026 TEMPO 0500 FG VV///
2019-09-15 03:00 SW 230° 2 - LFSB 150100Z AUTO 23002KT 6000 0900 R15/P2000 R33/P2000 BCFG FEW011 13/12 Q1026 TEMPO 3000 BR BKN002
2019-09-15 02:30 - 0 - LFSB 150030Z AUTO 00000KT 9999 4800 FEW011 13/13 Q1026 TEMPO 3000 BR BKN002
2019-09-15 02:00 - 0 - LFSB 150000Z AUTO 00000KT 6000 2400 SCT011 13/13 Q1026 NOSIG
2019-09-15 01:30 SW 240° 2 - LFSB 142330Z AUTO 24002KT 9999 3800 SCT012 13/12 Q1027 NOSIG
2019-09-15 01:00 - 0 - LFSB 142300Z AUTO 00000KT 9999 2900 NSC 14/14 Q1027 BECMG 4000 BR
2019-09-15 00:30 - 1 - LFSB 142230Z AUTO VRB01KT CAVOK 15/14 Q1027 BECMG 4000 BR
2019-09-15 00:00 - 1 - LFSB 142200Z VRB01KT CAVOK 15/14 Q1027 NOSIG
2019-09-14 23:00 N 350° 2 2 LFSB 142100Z 35002KT CAVOK 17/15 Q1027 NOSIG
2019-09-14 22:30 NW 320° 3 3 LFSB 142030Z 32003KT CAVOK 17/16 Q1027 NOSIG
2019-09-14 22:00 NW 310° 4 3 LFSB 142000Z 31004KT CAVOK 16/15 Q1027 NOSIG
2019-09-14 21:30 W 290° 2 1 LFSB 141930Z 29002KT CAVOK 17/16 Q1027 NOSIG
2019-09-14 21:00 W 270° 4 1 LFSB 141900Z 27004KT CAVOK 18/16 Q1027 NOSIG
2019-09-14 20:30 W 270°
(250°–320°)
4 0–4 LFSB 141830Z 27004KT 250V320 CAVOK 19/16 Q1027 NOSIG
2019-09-14 20:00 NW 310° 3 3 LFSB 141800Z 31003KT CAVOK 20/16 Q1027 NOSIG
2019-09-14 19:30 NW 330° 4 4 LFSB 141730Z 33004KT CAVOK 21/17 Q1027 NOSIG
2019-09-14 19:00 N 340° 7 7 LFSB 141700Z 34007KT 9999 FEW053 BKN250 23/17 Q1027 NOSIG
2019-09-14 18:30 N 340° 8 8 LFSB 141630Z 34008KT 9999 FEW053 BKN250 23/17 Q1027 NOSIG
2019-09-14 18:00 var 360° 8 8 LFSB 141600Z 36008KT 9999 FEW053 BKN250 24/17 Q1027 NOSIG
2019-09-14 17:30 var 360°
(330°–30°)
7 4–7 LFSB 141530Z 36007KT 330V030 9999 FEW050 BKN250 25/17 Q1027 NOSIG
2019-09-14 17:00 N 10°
(330°–30°)
8 5–8 LFSB 141500Z 01008KT 330V030 9999 FEW050 BKN250 24/17 Q1027 NOSIG
2019-09-14 16:30 N 10° 9 8 LFSB 141430Z 01009KT 9999 FEW050 BKN250 24/17 Q1027 NOSIG
2019-09-14 16:00 N 350°
(320°–20°)
9 7–9 LFSB 141400Z 35009KT 320V020 9999 FEW050 BKN250 24/16 Q1028 NOSIG
2019-09-14 15:30 N 350°
(320°–30°)
9 6–9 LFSB 141330Z 35009KT 320V030 9999 FEW050 BKN250 24/16 Q1028 NOSIG
2019-09-14 15:00 var 360° 10 9 LFSB 141300Z 36010KT 9999 FEW046 BKN250 23/16 Q1028 NOSIG
2019-09-14 14:30 N 10° 8 7 LFSB 141230Z 01008KT 9999 FEW040 BKN250 24/16 Q1028 NOSIG
2019-09-14 14:00 var 360°
(290°–80°)
4 0–4 LFSB 141200Z 36004KT 290V080 9999 FEW040 BKN250 23/16 Q1028 NOSIG
2019-09-14 13:30 N 10°
(340°–50°)
4 1–4 LFSB 141130Z 01004KT 340V050 CAVOK 22/16 Q1029 NOSIG
2019-09-14 13:00 N 340°
(290°–40°)
4 2–4 LFSB 141100Z 34004KT 290V040 CAVOK 21/16 Q1029 NOSIG
2019-09-14 12:30 N 10°
(320°–40°)
5 3–5 LFSB 141030Z 01005KT 320V040 9999 FEW013 BKN250 19/15 Q1030 NOSIG
2019-09-14 12:00 var 360°
(310°–50°)
5 2–5 LFSB 141000Z 36005KT 310V050 8000 FEW006 BKN250 18/15 Q1030 NOSIG
2019-09-14 11:30 - 3 - LFSB 140930Z VRB03KT 4000 BR BKN004 16/15 Q1031 BECMG CAVOK
2019-09-14 11:00 - 2 - LFSB 140900Z VRB02KT 3000 BR OVC003 16/15 Q1031 BECMG CAVOK
2019-09-14 10:30 - 2 - LFSB 140830Z VRB02KT 3000 BR OVC002 15/15 Q1031 BECMG CAVOK
2019-09-14 10:00 - 2 - LFSB 140800Z VRB02KT 1800 BR OVC002 15/15 Q1031 BECMG CAVOK